createdAt,value
2022-12-11T00:02:08.226Z,12.30
2022-12-11T00:07:05.958Z,11.23
2022-12-11T00:12:04.726Z,10.32
2022-12-11T00:17:02.874Z,10.25
2022-12-11T00:22:00.368Z,10.45
2022-12-11T00:26:58.956Z,8.82
2022-12-11T00:31:56.435Z,16.40
2022-12-11T00:36:55.406Z,9.13
2022-12-11T00:41:52.212Z,11.27
2022-12-11T00:46:49.262Z,10.00
2022-12-11T00:51:46.434Z,13.10
2022-12-11T00:56:45.361Z,8.88
2022-12-11T01:01:42.598Z,9.98
2022-12-11T01:06:40.404Z,9.15
2022-12-11T01:11:38.235Z,11.90
2022-12-11T01:16:40.932Z,7.55
2022-12-11T01:21:40.702Z,7.55
2022-12-11T01:26:42.398Z,10.48
2022-12-11T01:31:42.767Z,14.27
2022-12-11T01:36:44.112Z,10.73
2022-12-11T01:41:41.368Z,10.48
2022-12-11T01:46:38.828Z,11.13
2022-12-11T01:51:41.246Z,10.07
2022-12-11T01:56:41.304Z,10.50
2022-12-11T02:01:43.963Z,11.88
2022-12-11T02:06:49.008Z,9.27
2022-12-11T02:11:58.433Z,13.77
2022-12-11T02:17:04.681Z,14.88
2022-12-11T02:22:08.440Z,10.25
2022-12-11T02:27:36.316Z,21.27
2022-12-11T02:32:39.707Z,16.33
2022-12-11T02:37:42.133Z,16.15
2022-12-11T02:42:42.702Z,11.35
2022-12-11T02:47:45.153Z,17.33
2022-12-11T02:52:44.974Z,14.75
2022-12-11T02:57:45.417Z,16.63
2022-12-11T03:02:44.804Z,17.42
2022-12-11T03:07:44.462Z,18.83
2022-12-11T03:12:46.132Z,14.57
2022-12-11T03:17:56.107Z,11.15
2022-12-11T03:23:03.017Z,12.73
2022-12-11T03:28:10.203Z,16.48
2022-12-11T03:33:13.670Z,13.45
2022-12-11T03:38:16.213Z,15.73
2022-12-11T03:43:15.163Z,12.82
2022-12-11T03:48:15.047Z,11.18
2022-12-11T03:53:12.909Z,12.40
2022-12-11T03:58:09.788Z,14.88
2022-12-11T04:03:13.825Z,15.30
2022-12-11T04:08:15.293Z,9.98
2022-12-11T04:13:13.792Z,12.95
2022-12-11T04:18:32.186Z,10.50
2022-12-11T04:23:47.833Z,9.80
2022-12-11T04:28:49.429Z,9.77
2022-12-11T04:33:54.156Z,9.93
2022-12-11T04:38:55.243Z,8.90
2022-12-11T04:43:52.335Z,11.35
2022-12-11T04:48:56.728Z,8.82
2022-12-11T04:53:55.829Z,11.38
2022-12-11T04:58:52.783Z,7.88
2022-12-11T05:03:50.522Z,8.45
2022-12-11T05:08:48.127Z,6.95
2022-12-11T05:13:45.944Z,13.10
2022-12-11T05:18:43.272Z,9.40
2022-12-11T05:23:40.941Z,8.32
2022-12-11T05:28:39.492Z,6.82
2022-12-11T05:33:41.049Z,7.68
2022-12-11T05:38:38.212Z,10.70
2022-12-11T05:43:36.514Z,9.63
2022-12-11T05:48:35.024Z,10.32
2022-12-11T05:53:33.098Z,9.23
2022-12-11T05:58:33.837Z,7.68
2022-12-11T06:03:30.776Z,10.15
2022-12-11T06:08:28.342Z,12.95
2022-12-11T06:13:27.964Z,9.77
2022-12-11T06:18:27.958Z,11.90
2022-12-11T06:23:26.052Z,8.60
2022-12-11T06:28:23.124Z,7.47
2022-12-11T06:33:21.057Z,9.00
2022-12-11T06:38:18.585Z,9.35
2022-12-11T06:43:19.800Z,9.75
2022-12-11T06:48:17.620Z,11.43
2022-12-11T06:53:22.383Z,9.18
2022-12-11T06:58:31.984Z,7.70
2022-12-11T07:03:29.632Z,9.80
2022-12-11T07:08:29.325Z,10.50
2022-12-11T07:13:27.507Z,11.52
2022-12-11T07:18:37.623Z,7.95
2022-12-11T07:23:43.651Z,14.32
2022-12-11T07:28:41.369Z,13.25
2022-12-11T07:33:39.812Z,13.75
2022-12-11T07:38:44.220Z,11.73
2022-12-11T07:43:42.227Z,9.00
2022-12-11T07:48:47.412Z,12.70
2022-12-11T07:53:51.294Z,16.63
2022-12-11T07:58:52.074Z,13.10
2022-12-11T08:03:54.478Z,13.00
2022-12-11T08:09:00.767Z,10.88
2022-12-11T08:13:59.282Z,15.47
2022-12-11T08:19:00.167Z,17.88
2022-12-11T08:24:01.955Z,13.60
2022-12-11T08:29:00.957Z,13.02
2022-12-11T08:33:58.543Z,11.70
2022-12-11T08:38:56.775Z,9.95
2022-12-11T08:43:57.051Z,10.00
2022-12-11T08:48:55.629Z,9.27
2022-12-11T08:53:55.903Z,6.93
2022-12-11T08:58:55.444Z,8.30
2022-12-11T09:03:55.991Z,8.40
2022-12-11T09:08:56.534Z,10.05
2022-12-11T09:13:57.067Z,9.27
2022-12-11T09:18:57.967Z,8.40
2022-12-11T09:24:00.128Z,7.43
2022-12-11T09:29:05.070Z,6.15
2022-12-11T09:34:06.732Z,7.57
2022-12-11T09:39:06.972Z,5.63
2022-12-11T09:44:31.097Z,4.40
2022-12-11T09:49:35.221Z,6.07
2022-12-11T09:54:33.925Z,7.60
2022-12-11T09:59:41.000Z,4.47
2022-12-11T10:04:48.357Z,6.18
2022-12-11T10:09:51.797Z,4.88
2022-12-11T10:15:05.971Z,3.17
2022-12-11T10:20:14.801Z,5.57
2022-12-11T10:25:23.031Z,4.55
2022-12-11T10:30:23.323Z,7.18
2022-12-11T10:35:29.741Z,4.65
2022-12-11T10:40:31.729Z,5.78
2022-12-11T10:45:32.224Z,5.80
2022-12-11T10:50:29.236Z,7.80
2022-12-11T10:55:28.813Z,4.93
2022-12-11T11:00:34.102Z,6.80
2022-12-11T11:05:34.048Z,7.65
2022-12-11T11:10:31.153Z,8.32
2022-12-11T11:15:30.381Z,9.82
2022-12-11T11:20:29.631Z,8.85
2022-12-11T11:25:29.415Z,7.53
2022-12-11T11:30:28.926Z,7.07
2022-12-11T11:35:28.666Z,9.73
2022-12-11T11:40:30.637Z,8.32
2022-12-11T11:45:31.545Z,9.95
2022-12-11T11:50:33.723Z,7.18
2022-12-11T11:55:41.614Z,10.45
2022-12-11T12:00:38.560Z,10.13
2022-12-11T12:05:42.622Z,7.90
2022-12-11T12:10:47.430Z,10.38
2022-12-11T12:15:51.692Z,10.85
2022-12-11T12:21:02.201Z,10.93
2022-12-11T12:26:06.278Z,7.43
2022-12-11T12:31:14.214Z,8.52
2022-12-11T12:36:21.250Z,9.38
2022-12-11T12:41:24.518Z,13.57
2022-12-11T12:46:35.574Z,12.00
2022-12-11T12:51:34.030Z,12.98
2022-12-11T12:56:32.897Z,14.35
2022-12-11T13:01:34.300Z,14.02
2022-12-11T13:06:36.918Z,11.40
2022-12-11T13:11:35.829Z,13.23
2022-12-11T13:16:38.551Z,12.50
2022-12-11T13:21:37.962Z,14.27
2022-12-11T13:26:34.778Z,12.73
2022-12-11T13:31:35.247Z,6.65
2022-12-11T13:36:40.013Z,4.70
2022-12-11T13:41:38.552Z,4.63
2022-12-11T13:46:39.361Z,5.97
2022-12-11T13:51:37.051Z,3.42
2022-12-11T13:56:35.590Z,2.83
2022-12-11T14:01:34.696Z,4.45
2022-12-11T14:06:34.966Z,7.93
2022-12-11T14:11:38.253Z,3.35
2022-12-11T14:16:42.773Z,4.35
2022-12-11T14:21:42.178Z,4.23
2022-12-11T14:26:39.942Z,4.57
2022-12-11T14:31:53.472Z,3.95
2022-12-11T14:36:52.607Z,6.05
2022-12-11T14:41:58.695Z,4.50
2022-12-11T14:47:02.307Z,3.42
2022-12-11T14:52:00.383Z,3.15
2022-12-11T14:57:02.140Z,7.57
2022-12-11T15:02:30.139Z,3.78
2022-12-11T15:07:29.710Z,4.03
2022-12-11T15:12:33.429Z,4.28
2022-12-11T15:17:39.449Z,3.35
2022-12-11T15:22:37.450Z,5.32
2022-12-11T15:27:37.671Z,3.67
2022-12-11T15:32:36.253Z,5.13
2022-12-11T15:37:39.442Z,6.57
2022-12-11T15:42:39.930Z,5.63
2022-12-11T15:47:37.009Z,4.63
2022-12-11T15:52:33.961Z,8.55
2022-12-11T15:57:34.465Z,6.22
2022-12-11T16:02:39.559Z,6.82
2022-12-11T16:12:58.755Z,8.48
2022-12-11T16:18:03.837Z,8.07
2022-12-11T16:23:03.021Z,4.57
2022-12-11T16:28:01.320Z,4.18
2022-12-11T16:32:58.308Z,5.60
2022-12-11T16:37:56.540Z,3.63
2022-12-11T16:42:53.618Z,4.28
2022-12-11T16:47:50.672Z,4.22
2022-12-11T16:52:47.644Z,5.22
2022-12-11T16:57:45.330Z,7.60
2022-12-11T17:02:42.970Z,7.15
2022-12-11T17:07:40.245Z,4.40
2022-12-11T17:12:40.326Z,5.78
2022-12-11T17:17:39.383Z,5.93
2022-12-11T17:22:39.999Z,7.82
2022-12-11T17:27:37.261Z,5.25
2022-12-11T17:32:38.435Z,7.15
2022-12-11T17:37:37.330Z,0.65
2022-12-11T17:42:38.188Z,0.10
2022-12-11T17:47:35.012Z,0.73
2022-12-11T17:52:36.425Z,0.22
2022-12-11T17:57:37.435Z,0.63
2022-12-11T18:02:37.406Z,0.40
2022-12-11T18:07:37.167Z,0.10
2022-12-11T18:12:34.659Z,1.45
2022-12-11T18:17:34.805Z,0.47
2022-12-11T18:22:34.873Z,0.00
2022-12-11T18:27:36.537Z,1.17
2022-12-11T18:32:36.054Z,0.10
2022-12-11T18:37:34.665Z,0.30
2022-12-11T18:42:33.590Z,0.10
2022-12-11T18:47:31.503Z,0.25
2022-12-11T18:52:29.519Z,1.38
2022-12-11T18:57:30.001Z,0.52
2022-12-11T19:02:27.615Z,0.55
2022-12-11T19:08:11.467Z,0.03
2022-12-11T19:13:09.091Z,0.22
2022-12-11T19:18:08.582Z,0.77
2022-12-11T19:23:07.969Z,0.35
2022-12-11T19:28:05.810Z,0.10
2022-12-11T19:33:04.854Z,0.17
2022-12-11T19:38:01.941Z,0.60
2022-12-11T19:43:09.856Z,0.30
2022-12-11T19:48:09.232Z,0.63
2022-12-11T19:53:08.202Z,0.65
2022-12-11T19:58:06.045Z,0.03
2022-12-11T20:03:03.064Z,1.65
2022-12-11T20:08:27.732Z,0.68
2022-12-11T20:13:21.005Z,0.47
2022-12-11T20:18:18.820Z,0.32
2022-12-11T20:23:16.455Z,0.30
2022-12-11T20:28:13.663Z,0.95
2022-12-11T20:33:11.975Z,0.52
2022-12-11T20:38:11.434Z,0.77
2022-12-11T20:43:08.362Z,0.85
2022-12-11T20:48:05.561Z,1.00
2022-12-11T20:53:03.316Z,0.77
2022-12-11T20:58:00.412Z,3.20
2022-12-11T21:02:57.221Z,0.70
2022-12-11T21:07:54.667Z,0.73
2022-12-11T21:12:52.365Z,1.90
2022-12-11T21:17:49.461Z,1.60
2022-12-11T21:22:46.493Z,1.77
2022-12-11T21:27:43.311Z,1.00
2022-12-11T21:32:41.065Z,0.52
2022-12-11T21:37:39.619Z,0.73
2022-12-11T21:42:36.499Z,0.20
2022-12-11T21:47:33.660Z,0.43
2022-12-11T21:52:31.610Z,0.73
2022-12-11T21:57:29.248Z,1.27
2022-12-11T22:02:28.823Z,0.80
2022-12-11T22:07:26.470Z,2.92
2022-12-11T22:12:27.755Z,2.30
2022-12-11T22:17:24.955Z,0.22
2022-12-11T22:22:22.116Z,1.65
2022-12-11T22:27:23.459Z,2.60
2022-12-11T22:32:21.408Z,1.02
2022-12-11T22:37:18.245Z,3.22
2022-12-11T22:42:15.289Z,0.30
2022-12-11T22:47:13.259Z,1.05
2022-12-11T22:52:13.069Z,2.85
2022-12-11T22:57:09.970Z,1.42
2022-12-11T23:02:07.016Z,0.77
2022-12-11T23:07:04.288Z,1.02
2022-12-11T23:12:01.877Z,7.47
2022-12-11T23:16:58.830Z,1.98
2022-12-11T23:21:55.607Z,0.55
2022-12-11T23:26:52.490Z,1.30
2022-12-11T23:31:51.227Z,15.27
2022-12-11T23:36:48.058Z,16.42
2022-12-11T23:41:45.031Z,17.02
2022-12-11T23:46:42.096Z,16.17
2022-12-11T23:51:39.889Z,19.13
2022-12-11T23:56:36.670Z,16.15
